sensor_id;sensor_type;location;lat;lon;timestamp;P1;durP1;ratioP1;P2;durP2;ratioP2
61108;SDS011;46995;55.740;37.402;2022-11-20T00:01:05;21.42;;;11.68;;
61108;SDS011;46995;55.740;37.402;2022-11-20T00:03:31;22.23;;;11.95;;
61108;SDS011;46995;55.740;37.402;2022-11-20T00:06:02;20.13;;;11.82;;
61108;SDS011;46995;55.740;37.402;2022-11-20T00:08:29;18.63;;;11.35;;
61108;SDS011;46995;55.740;37.402;2022-11-20T00:10:55;20.02;;;10.57;;
61108;SDS011;46995;55.740;37.402;2022-11-20T00:13:20;19.77;;;11.57;;
61108;SDS011;46995;55.740;37.402;2022-11-20T00:15:46;22.10;;;12.20;;
61108;SDS011;46995;55.740;37.402;2022-11-20T00:18:12;20.10;;;11.35;;
61108;SDS011;46995;55.740;37.402;2022-11-20T00:20:37;18.80;;;11.02;;
61108;SDS011;46995;55.740;37.402;2022-11-20T00:23:04;18.97;;;10.27;;
61108;SDS011;46995;55.740;37.402;2022-11-20T00:25:33;16.37;;;10.13;;
61108;SDS011;46995;55.740;37.402;2022-11-20T00:28:00;17.88;;;9.77;;
61108;SDS011;46995;55.740;37.402;2022-11-20T00:30:26;19.05;;;10.88;;
61108;SDS011;46995;55.740;37.402;2022-11-20T00:32:52;18.70;;;10.68;;
61108;SDS011;46995;55.740;37.402;2022-11-20T00:35:18;17.38;;;10.45;;
61108;SDS011;46995;55.740;37.402;2022-11-20T00:37:43;17.67;;;10.68;;
61108;SDS011;46995;55.740;37.402;2022-11-20T00:40:09;18.90;;;10.98;;
61108;SDS011;46995;55.740;37.402;2022-11-20T00:42:35;18.02;;;10.25;;
61108;SDS011;46995;55.740;37.402;2022-11-20T00:45:01;18.45;;;10.50;;
61108;SDS011;46995;55.740;37.402;2022-11-20T00:47:27;16.88;;;9.85;;
61108;SDS011;46995;55.740;37.402;2022-11-20T00:49:52;18.65;;;10.13;;
61108;SDS011;46995;55.740;37.402;2022-11-20T00:52:18;23.38;;;10.05;;
61108;SDS011;46995;55.740;37.402;2022-11-20T00:54:44;18.77;;;10.02;;
61108;SDS011;46995;55.740;37.402;2022-11-20T00:57:09;19.40;;;9.57;;
61108;SDS011;46995;55.740;37.402;2022-11-20T00:59:35;15.60;;;9.80;;
61108;SDS011;46995;55.740;37.402;2022-11-20T01:02:01;19.70;;;9.75;;
61108;SDS011;46995;55.740;37.402;2022-11-20T01:04:26;16.65;;;9.30;;
61108;SDS011;46995;55.740;37.402;2022-11-20T01:06:52;17.35;;;9.32;;
61108;SDS011;46995;55.740;37.402;2022-11-20T01:09:18;22.83;;;10.43;;
61108;SDS011;46995;55.740;37.402;2022-11-20T01:11:44;16.70;;;9.35;;
61108;SDS011;46995;55.740;37.402;2022-11-20T01:14:14;19.23;;;9.43;;
61108;SDS011;46995;55.740;37.402;2022-11-20T01:16:43;16.33;;;9.85;;
61108;SDS011;46995;55.740;37.402;2022-11-20T01:19:12;19.42;;;10.05;;
61108;SDS011;46995;55.740;37.402;2022-11-20T01:21:40;15.35;;;8.38;;
61108;SDS011;46995;55.740;37.402;2022-11-20T01:24:08;16.10;;;9.00;;
61108;SDS011;46995;55.740;37.402;2022-11-20T01:26:37;30.33;;;13.57;;
61108;SDS011;46995;55.740;37.402;2022-11-20T01:29:04;15.23;;;9.43;;
61108;SDS011;46995;55.740;37.402;2022-11-20T01:31:32;17.75;;;10.10;;
61108;SDS011;46995;55.740;37.402;2022-11-20T01:34:00;18.75;;;9.43;;
61108;SDS011;46995;55.740;37.402;2022-11-20T01:36:37;15.18;;;8.57;;
61108;SDS011;46995;55.740;37.402;2022-11-20T01:39:05;20.15;;;9.45;;
61108;SDS011;46995;55.740;37.402;2022-11-20T01:41:34;15.32;;;8.52;;
61108;SDS011;46995;55.740;37.402;2022-11-20T01:44:19;16.50;;;9.40;;
61108;SDS011;46995;55.740;37.402;2022-11-20T01:47:01;15.70;;;9.18;;
61108;SDS011;46995;55.740;37.402;2022-11-20T01:52:03;15.00;;;9.02;;
61108;SDS011;46995;55.740;37.402;2022-11-20T01:54:40;14.60;;;9.05;;
61108;SDS011;46995;55.740;37.402;2022-11-20T01:57:11;14.80;;;9.05;;
61108;SDS011;46995;55.740;37.402;2022-11-20T01:59:41;16.17;;;8.70;;
61108;SDS011;46995;55.740;37.402;2022-11-20T02:02:18;16.85;;;9.50;;
61108;SDS011;46995;55.740;37.402;2022-11-20T02:04:44;15.95;;;9.50;;
61108;SDS011;46995;55.740;37.402;2022-11-20T02:07:10;17.30;;;9.02;;
61108;SDS011;46995;55.740;37.402;2022-11-20T02:09:36;15.18;;;9.10;;
61108;SDS011;46995;55.740;37.402;2022-11-20T02:12:02;15.48;;;9.07;;
61108;SDS011;46995;55.740;37.402;2022-11-20T02:14:28;13.18;;;8.65;;
61108;SDS011;46995;55.740;37.402;2022-11-20T02:16:54;15.43;;;8.50;;
61108;SDS011;46995;55.740;37.402;2022-11-20T02:24:21;13.90;;;9.15;;
61108;SDS011;46995;55.740;37.402;2022-11-20T02:26:49;14.95;;;7.75;;
61108;SDS011;46995;55.740;37.402;2022-11-20T02:30:13;16.38;;;8.82;;
61108;SDS011;46995;55.740;37.402;2022-11-20T02:32:35;14.98;;;8.43;;
61108;SDS011;46995;55.740;37.402;2022-11-20T02:37:43;16.52;;;8.43;;
61108;SDS011;46995;55.740;37.402;2022-11-20T02:40:10;15.10;;;8.40;;
61108;SDS011;46995;55.740;37.402;2022-11-20T02:42:37;15.98;;;8.85;;
61108;SDS011;46995;55.740;37.402;2022-11-20T02:45:04;15.25;;;8.07;;
61108;SDS011;46995;55.740;37.402;2022-11-20T02:47:30;16.10;;;8.63;;
61108;SDS011;46995;55.740;37.402;2022-11-20T02:49:56;14.10;;;8.45;;
61108;SDS011;46995;55.740;37.402;2022-11-20T02:52:22;17.35;;;10.15;;
61108;SDS011;46995;55.740;37.402;2022-11-20T02:54:48;19.80;;;9.63;;
61108;SDS011;46995;55.740;37.402;2022-11-20T02:57:14;14.02;;;7.78;;
61108;SDS011;46995;55.740;37.402;2022-11-20T02:59:40;16.40;;;8.15;;
61108;SDS011;46995;55.740;37.402;2022-11-20T03:02:06;12.75;;;7.50;;
61108;SDS011;46995;55.740;37.402;2022-11-20T03:04:31;15.50;;;8.18;;
61108;SDS011;46995;55.740;37.402;2022-11-20T03:06:57;14.95;;;8.30;;
61108;SDS011;46995;55.740;37.402;2022-11-20T03:09:23;14.27;;;7.75;;
61108;SDS011;46995;55.740;37.402;2022-11-20T03:11:56;14.57;;;8.02;;
61108;SDS011;46995;55.740;37.402;2022-11-20T03:14:22;14.73;;;8.48;;
61108;SDS011;46995;55.740;37.402;2022-11-20T03:16:47;15.68;;;8.38;;
61108;SDS011;46995;55.740;37.402;2022-11-20T03:19:13;13.05;;;7.97;;
61108;SDS011;46995;55.740;37.402;2022-11-20T03:21:39;16.55;;;8.85;;
61108;SDS011;46995;55.740;37.402;2022-11-20T03:24:05;14.57;;;8.63;;
61108;SDS011;46995;55.740;37.402;2022-11-20T03:26:30;12.52;;;7.65;;
61108;SDS011;46995;55.740;37.402;2022-11-20T03:28:57;17.90;;;8.00;;
61108;SDS011;46995;55.740;37.402;2022-11-20T03:31:26;16.67;;;8.70;;
61108;SDS011;46995;55.740;37.402;2022-11-20T03:34:02;15.70;;;8.23;;
61108;SDS011;46995;55.740;37.402;2022-11-20T03:36:29;14.55;;;7.40;;
61108;SDS011;46995;55.740;37.402;2022-11-20T03:38:56;12.80;;;8.02;;
61108;SDS011;46995;55.740;37.402;2022-11-20T03:41:23;14.38;;;8.13;;
61108;SDS011;46995;55.740;37.402;2022-11-20T03:43:51;16.88;;;9.23;;
61108;SDS011;46995;55.740;37.402;2022-11-20T03:46:18;16.30;;;9.02;;
61108;SDS011;46995;55.740;37.402;2022-11-20T03:48:43;12.43;;;7.72;;
61108;SDS011;46995;55.740;37.402;2022-11-20T03:51:13;14.18;;;7.97;;
61108;SDS011;46995;55.740;37.402;2022-11-20T03:53:42;22.75;;;10.10;;
61108;SDS011;46995;55.740;37.402;2022-11-20T03:56:09;20.48;;;9.48;;
61108;SDS011;46995;55.740;37.402;2022-11-20T03:58:36;14.02;;;8.30;;
61108;SDS011;46995;55.740;37.402;2022-11-20T04:01:13;17.17;;;9.40;;
61108;SDS011;46995;55.740;37.402;2022-11-20T04:03:46;13.93;;;8.32;;
61108;SDS011;46995;55.740;37.402;2022-11-20T04:06:14;17.75;;;9.23;;
61108;SDS011;46995;55.740;37.402;2022-11-20T04:08:42;14.18;;;7.40;;
61108;SDS011;46995;55.740;37.402;2022-11-20T04:13:40;13.95;;;8.65;;
61108;SDS011;46995;55.740;37.402;2022-11-20T04:16:07;13.52;;;7.82;;
61108;SDS011;46995;55.740;37.402;2022-11-20T04:18:34;13.40;;;7.82;;
61108;SDS011;46995;55.740;37.402;2022-11-20T04:21:00;16.52;;;8.43;;
61108;SDS011;46995;55.740;37.402;2022-11-20T04:23:27;17.98;;;8.40;;
61108;SDS011;46995;55.740;37.402;2022-11-20T04:25:53;16.55;;;8.57;;
61108;SDS011;46995;55.740;37.402;2022-11-20T04:28:19;17.75;;;9.02;;
61108;SDS011;46995;55.740;37.402;2022-11-20T04:30:44;13.48;;;8.40;;
61108;SDS011;46995;55.740;37.402;2022-11-20T04:33:10;15.30;;;8.30;;
61108;SDS011;46995;55.740;37.402;2022-11-20T04:35:36;15.45;;;8.32;;
61108;SDS011;46995;55.740;37.402;2022-11-20T04:38:02;17.88;;;8.65;;
61108;SDS011;46995;55.740;37.402;2022-11-20T04:40:29;15.00;;;8.00;;
61108;SDS011;46995;55.740;37.402;2022-11-20T04:42:55;13.77;;;7.85;;
61108;SDS011;46995;55.740;37.402;2022-11-20T04:45:22;14.82;;;8.18;;
61108;SDS011;46995;55.740;37.402;2022-11-20T04:47:48;15.73;;;9.05;;
61108;SDS011;46995;55.740;37.402;2022-11-20T04:50:14;17.65;;;8.57;;
61108;SDS011;46995;55.740;37.402;2022-11-20T04:52:40;15.00;;;8.43;;
61108;SDS011;46995;55.740;37.402;2022-11-20T04:55:06;16.00;;;8.50;;
61108;SDS011;46995;55.740;37.402;2022-11-20T04:57:32;16.63;;;8.15;;
61108;SDS011;46995;55.740;37.402;2022-11-20T04:59:57;14.32;;;8.00;;
61108;SDS011;46995;55.740;37.402;2022-11-20T05:02:23;18.38;;;9.23;;
61108;SDS011;46995;55.740;37.402;2022-11-20T05:04:49;14.57;;;8.63;;
61108;SDS011;46995;55.740;37.402;2022-11-20T05:07:14;29.10;;;15.25;;
61108;SDS011;46995;55.740;37.402;2022-11-20T05:09:40;18.90;;;9.80;;
61108;SDS011;46995;55.740;37.402;2022-11-20T05:12:07;17.70;;;8.95;;
61108;SDS011;46995;55.740;37.402;2022-11-20T05:14:33;14.35;;;9.05;;
61108;SDS011;46995;55.740;37.402;2022-11-20T05:16:59;18.80;;;8.90;;
61108;SDS011;46995;55.740;37.402;2022-11-20T05:19:25;16.13;;;8.90;;
61108;SDS011;46995;55.740;37.402;2022-11-20T05:21:51;16.20;;;9.45;;
61108;SDS011;46995;55.740;37.402;2022-11-20T05:24:16;14.82;;;9.45;;
61108;SDS011;46995;55.740;37.402;2022-11-20T05:26:42;15.70;;;8.77;;
61108;SDS011;46995;55.740;37.402;2022-11-20T05:29:09;21.95;;;9.95;;
61108;SDS011;46995;55.740;37.402;2022-11-20T05:31:38;20.55;;;9.77;;
61108;SDS011;46995;55.740;37.402;2022-11-20T05:34:05;17.52;;;8.95;;
61108;SDS011;46995;55.740;37.402;2022-11-20T05:36:30;16.67;;;9.00;;
61108;SDS011;46995;55.740;37.402;2022-11-20T05:38:56;17.92;;;9.48;;
61108;SDS011;46995;55.740;37.402;2022-11-20T05:41:23;28.75;;;13.52;;
61108;SDS011;46995;55.740;37.402;2022-11-20T05:43:49;21.90;;;11.35;;
61108;SDS011;46995;55.740;37.402;2022-11-20T05:46:16;18.90;;;10.50;;
61108;SDS011;46995;55.740;37.402;2022-11-20T05:48:43;17.75;;;9.95;;
61108;SDS011;46995;55.740;37.402;2022-11-20T05:51:11;17.70;;;10.02;;
61108;SDS011;46995;55.740;37.402;2022-11-20T05:53:40;18.30;;;10.18;;
61108;SDS011;46995;55.740;37.402;2022-11-20T05:56:06;16.17;;;9.70;;
61108;SDS011;46995;55.740;37.402;2022-11-20T05:58:35;18.67;;;9.30;;
61108;SDS011;46995;55.740;37.402;2022-11-20T06:03:31;25.13;;;10.43;;
61108;SDS011;46995;55.740;37.402;2022-11-20T06:05:59;23.75;;;9.73;;
61108;SDS011;46995;55.740;37.402;2022-11-20T06:08:28;18.15;;;9.77;;
61108;SDS011;46995;55.740;37.402;2022-11-20T06:10:54;19.55;;;10.27;;
61108;SDS011;46995;55.740;37.402;2022-11-20T06:13:20;18.70;;;10.63;;
61108;SDS011;46995;55.740;37.402;2022-11-20T06:15:51;19.95;;;11.18;;
61108;SDS011;46995;55.740;37.402;2022-11-20T06:18:17;17.20;;;9.85;;
61108;SDS011;46995;55.740;37.402;2022-11-20T06:20:44;18.52;;;10.15;;
61108;SDS011;46995;55.740;37.402;2022-11-20T06:23:10;19.80;;;10.85;;
61108;SDS011;46995;55.740;37.402;2022-11-20T06:25:37;21.00;;;10.85;;
61108;SDS011;46995;55.740;37.402;2022-11-20T06:28:07;19.60;;;11.10;;
61108;SDS011;46995;55.740;37.402;2022-11-20T06:30:34;19.58;;;11.00;;
61108;SDS011;46995;55.740;37.402;2022-11-20T06:33:00;18.85;;;9.93;;
61108;SDS011;46995;55.740;37.402;2022-11-20T06:35:26;29.15;;;16.90;;
61108;SDS011;46995;55.740;37.402;2022-11-20T06:37:52;19.83;;;10.23;;
61108;SDS011;46995;55.740;37.402;2022-11-20T06:40:20;21.70;;;11.23;;
61108;SDS011;46995;55.740;37.402;2022-11-20T06:42:46;19.70;;;10.20;;
61108;SDS011;46995;55.740;37.402;2022-11-20T06:45:11;17.77;;;10.40;;
61108;SDS011;46995;55.740;37.402;2022-11-20T06:47:37;24.40;;;12.10;;
61108;SDS011;46995;55.740;37.402;2022-11-20T06:50:06;21.00;;;11.10;;
61108;SDS011;46995;55.740;37.402;2022-11-20T06:52:32;24.55;;;11.93;;
61108;SDS011;46995;55.740;37.402;2022-11-20T06:54:58;25.80;;;13.70;;
61108;SDS011;46995;55.740;37.402;2022-11-20T06:57:24;29.75;;;12.75;;
61108;SDS011;46995;55.740;37.402;2022-11-20T06:59:50;21.05;;;11.07;;
61108;SDS011;46995;55.740;37.402;2022-11-20T07:02:15;20.15;;;11.98;;
61108;SDS011;46995;55.740;37.402;2022-11-20T07:04:41;22.35;;;11.38;;
61108;SDS011;46995;55.740;37.402;2022-11-20T07:07:07;20.02;;;10.50;;
61108;SDS011;46995;55.740;37.402;2022-11-20T07:09:33;18.00;;;11.27;;
61108;SDS011;46995;55.740;37.402;2022-11-20T07:11:59;18.27;;;10.02;;
61108;SDS011;46995;55.740;37.402;2022-11-20T07:14:25;22.45;;;11.82;;
61108;SDS011;46995;55.740;37.402;2022-11-20T07:16:51;21.67;;;11.88;;
61108;SDS011;46995;55.740;37.402;2022-11-20T07:19:17;21.17;;;11.70;;
61108;SDS011;46995;55.740;37.402;2022-11-20T07:21:42;17.02;;;9.95;;
61108;SDS011;46995;55.740;37.402;2022-11-20T07:24:08;21.70;;;11.60;;
61108;SDS011;46995;55.740;37.402;2022-11-20T07:26:36;21.77;;;12.15;;
61108;SDS011;46995;55.740;37.402;2022-11-20T07:29:02;21.02;;;11.40;;
61108;SDS011;46995;55.740;37.402;2022-11-20T07:31:28;22.63;;;12.52;;
61108;SDS011;46995;55.740;37.402;2022-11-20T07:33:54;21.63;;;11.82;;
61108;SDS011;46995;55.740;37.402;2022-11-20T07:36:19;27.10;;;13.40;;
61108;SDS011;46995;55.740;37.402;2022-11-20T07:38:45;24.65;;;12.63;;
61108;SDS011;46995;55.740;37.402;2022-11-20T07:41:11;21.88;;;12.98;;
61108;SDS011;46995;55.740;37.402;2022-11-20T07:43:37;26.65;;;12.57;;
61108;SDS011;46995;55.740;37.402;2022-11-20T07:46:03;24.13;;;12.77;;
61108;SDS011;46995;55.740;37.402;2022-11-20T07:48:29;22.10;;;12.63;;
61108;SDS011;46995;55.740;37.402;2022-11-20T07:50:55;27.80;;;12.73;;
61108;SDS011;46995;55.740;37.402;2022-11-20T07:53:22;29.13;;;12.93;;
61108;SDS011;46995;55.740;37.402;2022-11-20T07:55:49;24.65;;;12.85;;
61108;SDS011;46995;55.740;37.402;2022-11-20T07:58:18;23.33;;;12.30;;
61108;SDS011;46995;55.740;37.402;2022-11-20T08:03:11;25.88;;;12.38;;
61108;SDS011;46995;55.740;37.402;2022-11-20T08:05:37;25.83;;;13.75;;
61108;SDS011;46995;55.740;37.402;2022-11-20T08:08:03;26.73;;;13.60;;
61108;SDS011;46995;55.740;37.402;2022-11-20T08:10:29;22.50;;;13.05;;
61108;SDS011;46995;55.740;37.402;2022-11-20T08:12:55;28.55;;;13.27;;
61108;SDS011;46995;55.740;37.402;2022-11-20T08:15:39;27.00;;;13.38;;
61108;SDS011;46995;55.740;37.402;2022-11-20T08:18:06;23.85;;;14.35;;
61108;SDS011;46995;55.740;37.402;2022-11-20T08:20:38;27.33;;;14.27;;
61108;SDS011;46995;55.740;37.402;2022-11-20T08:23:05;29.25;;;13.88;;
61108;SDS011;46995;55.740;37.402;2022-11-20T08:25:33;29.40;;;15.48;;
61108;SDS011;46995;55.740;37.402;2022-11-20T08:28:00;27.90;;;14.38;;
61108;SDS011;46995;55.740;37.402;2022-11-20T08:30:29;28.63;;;15.07;;
61108;SDS011;46995;55.740;37.402;2022-11-20T08:33:02;25.95;;;13.57;;
61108;SDS011;46995;55.740;37.402;2022-11-20T08:35:32;31.17;;;15.00;;
61108;SDS011;46995;55.740;37.402;2022-11-20T08:37:58;30.95;;;14.73;;
61108;SDS011;46995;55.740;37.402;2022-11-20T08:40:24;27.50;;;14.30;;
61108;SDS011;46995;55.740;37.402;2022-11-20T08:42:50;28.40;;;14.63;;
61108;SDS011;46995;55.740;37.402;2022-11-20T08:45:16;34.30;;;15.87;;
61108;SDS011;46995;55.740;37.402;2022-11-20T08:47:44;34.47;;;17.20;;
61108;SDS011;46995;55.740;37.402;2022-11-20T08:50:13;30.27;;;14.70;;
61108;SDS011;46995;55.740;37.402;2022-11-20T08:52:43;35.65;;;17.08;;
61108;SDS011;46995;55.740;37.402;2022-11-20T08:55:09;39.22;;;15.50;;
61108;SDS011;46995;55.740;37.402;2022-11-20T08:57:35;33.20;;;16.55;;
61108;SDS011;46995;55.740;37.402;2022-11-20T09:00:06;35.65;;;17.13;;
61108;SDS011;46995;55.740;37.402;2022-11-20T09:02:34;37.47;;;17.17;;
61108;SDS011;46995;55.740;37.402;2022-11-20T09:05:03;38.30;;;17.80;;
61108;SDS011;46995;55.740;37.402;2022-11-20T09:07:30;29.02;;;15.40;;
61108;SDS011;46995;55.740;37.402;2022-11-20T09:09:55;37.97;;;16.65;;
61108;SDS011;46995;55.740;37.402;2022-11-20T09:12:21;34.05;;;16.30;;
61108;SDS011;46995;55.740;37.402;2022-11-20T09:14:47;38.10;;;16.85;;
61108;SDS011;46995;55.740;37.402;2022-11-20T09:17:13;47.63;;;16.42;;
61108;SDS011;46995;55.740;37.402;2022-11-20T09:19:40;34.47;;;16.60;;
61108;SDS011;46995;55.740;37.402;2022-11-20T09:22:06;38.03;;;16.17;;
61108;SDS011;46995;55.740;37.402;2022-11-20T09:24:32;36.17;;;15.73;;
61108;SDS011;46995;55.740;37.402;2022-11-20T09:26:57;37.42;;;17.00;;
61108;SDS011;46995;55.740;37.402;2022-11-20T09:29:23;38.42;;;16.27;;
61108;SDS011;46995;55.740;37.402;2022-11-20T09:31:49;37.83;;;16.73;;
61108;SDS011;46995;55.740;37.402;2022-11-20T09:34:14;38.80;;;16.70;;
61108;SDS011;46995;55.740;37.402;2022-11-20T09:36:41;31.38;;;14.77;;
61108;SDS011;46995;55.740;37.402;2022-11-20T09:39:06;37.15;;;16.08;;
61108;SDS011;46995;55.740;37.402;2022-11-20T09:41:39;35.17;;;15.77;;
61108;SDS011;46995;55.740;37.402;2022-11-20T09:47:32;36.75;;;16.45;;
61108;SDS011;46995;55.740;37.402;2022-11-20T09:55:23;38.22;;;17.23;;
61108;SDS011;46995;55.740;37.402;2022-11-20T09:57:51;42.05;;;16.63;;
61108;SDS011;46995;55.740;37.402;2022-11-20T10:00:17;33.33;;;15.87;;
61108;SDS011;46995;55.740;37.402;2022-11-20T10:05:22;33.13;;;16.13;;
61108;SDS011;46995;55.740;37.402;2022-11-20T10:10:44;34.97;;;16.42;;
61108;SDS011;46995;55.740;37.402;2022-11-20T10:24:20;34.47;;;15.02;;
61108;SDS011;46995;55.740;37.402;2022-11-20T10:29:55;28.80;;;13.95;;
61108;SDS011;46995;55.740;37.402;2022-11-20T10:32:35;29.58;;;14.15;;
61108;SDS011;46995;55.740;37.402;2022-11-20T10:37:42;30.40;;;15.50;;
61108;SDS011;46995;55.740;37.402;2022-11-20T10:40:32;36.80;;;15.68;;
61108;SDS011;46995;55.740;37.402;2022-11-20T10:43:10;29.48;;;14.52;;
61108;SDS011;46995;55.740;37.402;2022-11-20T10:48:21;28.98;;;13.32;;
61108;SDS011;46995;55.740;37.402;2022-11-20T10:53:48;26.85;;;14.05;;
61108;SDS011;46995;55.740;37.402;2022-11-20T10:56:27;29.45;;;13.68;;
61108;SDS011;46995;55.740;37.402;2022-11-20T11:01:55;28.20;;;12.82;;
61108;SDS011;46995;55.740;37.402;2022-11-20T11:07:17;24.77;;;12.52;;
61108;SDS011;46995;55.740;37.402;2022-11-20T11:09:48;24.13;;;12.95;;
61108;SDS011;46995;55.740;37.402;2022-11-20T11:12:17;23.45;;;11.90;;
61108;SDS011;46995;55.740;37.402;2022-11-20T11:17:20;26.52;;;12.25;;
61108;SDS011;46995;55.740;37.402;2022-11-20T11:20:06;22.58;;;11.57;;
61108;SDS011;46995;55.740;37.402;2022-11-20T11:22:43;21.95;;;11.38;;
61108;SDS011;46995;55.740;37.402;2022-11-20T11:25:55;21.88;;;10.70;;
61108;SDS011;46995;55.740;37.402;2022-11-20T11:28:19;19.65;;;10.15;;
61108;SDS011;46995;55.740;37.402;2022-11-20T11:30:46;20.98;;;11.43;;
61108;SDS011;46995;55.740;37.402;2022-11-20T11:33:21;23.98;;;11.90;;
61108;SDS011;46995;55.740;37.402;2022-11-20T11:35:50;17.95;;;10.55;;
61108;SDS011;46995;55.740;37.402;2022-11-20T11:38:27;18.20;;;10.13;;
61108;SDS011;46995;55.740;37.402;2022-11-20T11:40:57;20.15;;;10.98;;
61108;SDS011;46995;55.740;37.402;2022-11-20T11:43:26;18.75;;;10.18;;
61108;SDS011;46995;55.740;37.402;2022-11-20T11:46:33;18.10;;;10.70;;
61108;SDS011;46995;55.740;37.402;2022-11-20T11:49:00;20.10;;;10.82;;
61108;SDS011;46995;55.740;37.402;2022-11-20T11:51:53;18.77;;;9.90;;
61108;SDS011;46995;55.740;37.402;2022-11-20T11:57:04;18.92;;;10.77;;
61108;SDS011;46995;55.740;37.402;2022-11-20T11:59:47;40.35;;;21.33;;
61108;SDS011;46995;55.740;37.402;2022-11-20T12:02:34;20.80;;;12.07;;
61108;SDS011;46995;55.740;37.402;2022-11-20T12:05:16;19.13;;;10.82;;
61108;SDS011;46995;55.740;37.402;2022-11-20T12:07:57;24.17;;;12.55;;
61108;SDS011;46995;55.740;37.402;2022-11-20T12:13:20;20.40;;;11.35;;
61108;SDS011;46995;55.740;37.402;2022-11-20T12:16:13;19.13;;;11.00;;
61108;SDS011;46995;55.740;37.402;2022-11-20T12:18:40;27.35;;;14.07;;
61108;SDS011;46995;55.740;37.402;2022-11-20T12:21:11;19.33;;;10.65;;
61108;SDS011;46995;55.740;37.402;2022-11-20T12:29:21;20.02;;;10.65;;
61108;SDS011;46995;55.740;37.402;2022-11-20T12:54:52;23.90;;;12.65;;
61108;SDS011;46995;55.740;37.402;2022-11-20T13:00:22;22.58;;;11.75;;
61108;SDS011;46995;55.740;37.402;2022-11-20T13:05:49;19.40;;;11.05;;
61108;SDS011;46995;55.740;37.402;2022-11-20T13:08:41;20.10;;;11.68;;
61108;SDS011;46995;55.740;37.402;2022-11-20T13:17:21;19.92;;;11.10;;
61108;SDS011;46995;55.740;37.402;2022-11-20T13:19:57;22.90;;;11.05;;
61108;SDS011;46995;55.740;37.402;2022-11-20T13:22:42;20.95;;;11.00;;
61108;SDS011;46995;55.740;37.402;2022-11-20T13:27:56;24.60;;;11.68;;
61108;SDS011;46995;55.740;37.402;2022-11-20T13:30:29;23.17;;;11.63;;
61108;SDS011;46995;55.740;37.402;2022-11-20T13:33:09;21.30;;;11.82;;
61108;SDS011;46995;55.740;37.402;2022-11-20T13:36:21;17.73;;;11.25;;
61108;SDS011;46995;55.740;37.402;2022-11-20T13:38:51;24.48;;;11.15;;
61108;SDS011;46995;55.740;37.402;2022-11-20T13:44:37;17.75;;;10.77;;
61108;SDS011;46995;55.740;37.402;2022-11-20T13:49:55;28.60;;;12.15;;
61108;SDS011;46995;55.740;37.402;2022-11-20T13:52:42;19.60;;;11.80;;
61108;SDS011;46995;55.740;37.402;2022-11-20T14:00:25;21.63;;;11.38;;
61108;SDS011;46995;55.740;37.402;2022-11-20T14:05:35;23.88;;;11.82;;
61108;SDS011;46995;55.740;37.402;2022-11-20T14:08:04;23.08;;;12.38;;
61108;SDS011;46995;55.740;37.402;2022-11-20T14:10:36;20.55;;;11.85;;
61108;SDS011;46995;55.740;37.402;2022-11-20T14:13:12;20.05;;;11.63;;
61108;SDS011;46995;55.740;37.402;2022-11-20T14:15:42;21.13;;;11.43;;
61108;SDS011;46995;55.740;37.402;2022-11-20T14:18:20;20.23;;;11.68;;
61108;SDS011;46995;55.740;37.402;2022-11-20T14:20:51;22.17;;;10.90;;
61108;SDS011;46995;55.740;37.402;2022-11-20T14:23:26;22.90;;;11.80;;
61108;SDS011;46995;55.740;37.402;2022-11-20T14:25:53;23.10;;;11.50;;
61108;SDS011;46995;55.740;37.402;2022-11-20T14:28:30;23.30;;;11.52;;
61108;SDS011;46995;55.740;37.402;2022-11-20T14:33:22;19.83;;;10.50;;
61108;SDS011;46995;55.740;37.402;2022-11-20T14:35:54;18.30;;;11.35;;
61108;SDS011;46995;55.740;37.402;2022-11-20T14:38:24;21.05;;;11.07;;
61108;SDS011;46995;55.740;37.402;2022-11-20T14:40:52;20.50;;;11.40;;
61108;SDS011;46995;55.740;37.402;2022-11-20T14:43:22;20.25;;;11.38;;
61108;SDS011;46995;55.740;37.402;2022-11-20T14:45:57;19.33;;;11.68;;
61108;SDS011;46995;55.740;37.402;2022-11-20T14:48:28;22.67;;;11.48;;
61108;SDS011;46995;55.740;37.402;2022-11-20T14:54:16;23.40;;;12.50;;
61108;SDS011;46995;55.740;37.402;2022-11-20T14:56:54;18.45;;;11.65;;
61108;SDS011;46995;55.740;37.402;2022-11-20T14:59:28;19.95;;;12.15;;
61108;SDS011;46995;55.740;37.402;2022-11-20T15:02:05;22.38;;;12.43;;
61108;SDS011;46995;55.740;37.402;2022-11-20T15:04:49;21.58;;;12.00;;
61108;SDS011;46995;55.740;37.402;2022-11-20T15:07:25;22.63;;;12.02;;
61108;SDS011;46995;55.740;37.402;2022-11-20T15:10:03;17.60;;;10.18;;
61108;SDS011;46995;55.740;37.402;2022-11-20T15:12:30;19.83;;;11.57;;
61108;SDS011;46995;55.740;37.402;2022-11-20T15:14:58;20.77;;;11.50;;
61108;SDS011;46995;55.740;37.402;2022-11-20T15:17:24;21.17;;;11.48;;
61108;SDS011;46995;55.740;37.402;2022-11-20T15:19:50;21.65;;;11.38;;
61108;SDS011;46995;55.740;37.402;2022-11-20T15:24:43;21.65;;;11.25;;
61108;SDS011;46995;55.740;37.402;2022-11-20T15:27:09;21.23;;;11.32;;
61108;SDS011;46995;55.740;37.402;2022-11-20T15:29:35;22.73;;;11.40;;
61108;SDS011;46995;55.740;37.402;2022-11-20T15:32:01;22.40;;;11.80;;
61108;SDS011;46995;55.740;37.402;2022-11-20T15:34:27;23.45;;;11.23;;
61108;SDS011;46995;55.740;37.402;2022-11-20T15:36:53;22.58;;;12.02;;
61108;SDS011;46995;55.740;37.402;2022-11-20T15:39:19;19.52;;;10.98;;
61108;SDS011;46995;55.740;37.402;2022-11-20T15:41:46;20.67;;;11.52;;
61108;SDS011;46995;55.740;37.402;2022-11-20T15:44:12;19.02;;;11.82;;
61108;SDS011;46995;55.740;37.402;2022-11-20T15:46:39;19.70;;;11.50;;
61108;SDS011;46995;55.740;37.402;2022-11-20T15:49:11;24.05;;;12.15;;
61108;SDS011;46995;55.740;37.402;2022-11-20T15:51:41;24.20;;;12.85;;
61108;SDS011;46995;55.740;37.402;2022-11-20T15:54:13;22.60;;;12.23;;
61108;SDS011;46995;55.740;37.402;2022-11-20T15:56:43;21.45;;;12.82;;
61108;SDS011;46995;55.740;37.402;2022-11-20T15:59:09;23.30;;;12.30;;
61108;SDS011;46995;55.740;37.402;2022-11-20T16:01:35;23.73;;;12.10;;
61108;SDS011;46995;55.740;37.402;2022-11-20T16:04:01;23.70;;;12.48;;
61108;SDS011;46995;55.740;37.402;2022-11-20T16:06:28;20.88;;;11.82;;
61108;SDS011;46995;55.740;37.402;2022-11-20T16:08:53;24.37;;;12.80;;
61108;SDS011;46995;55.740;37.402;2022-11-20T16:11:19;24.83;;;13.35;;
61108;SDS011;46995;55.740;37.402;2022-11-20T16:13:45;22.58;;;11.40;;
61108;SDS011;46995;55.740;37.402;2022-11-20T16:16:33;23.23;;;12.20;;
61108;SDS011;46995;55.740;37.402;2022-11-20T16:19:01;25.80;;;12.57;;
61108;SDS011;46995;55.740;37.402;2022-11-20T16:21:27;26.15;;;13.35;;
61108;SDS011;46995;55.740;37.402;2022-11-20T16:24:03;27.40;;;13.25;;
61108;SDS011;46995;55.740;37.402;2022-11-20T16:26:30;24.88;;;13.55;;
61108;SDS011;46995;55.740;37.402;2022-11-20T16:28:59;24.48;;;13.30;;
61108;SDS011;46995;55.740;37.402;2022-11-20T16:31:25;24.00;;;13.10;;
61108;SDS011;46995;55.740;37.402;2022-11-20T16:33:55;21.83;;;12.85;;
61108;SDS011;46995;55.740;37.402;2022-11-20T16:36:22;29.90;;;13.07;;
61108;SDS011;46995;55.740;37.402;2022-11-20T16:38:53;23.88;;;12.60;;